Terminal Aerodrome Forecast
Issued by NWS

Home | Current Version | Previous Version | Graphics & Text | Print | Product List | Glossary On
Versions: 1 2 3 4 5 6 7 8 9 10 11 12 13 14 15 16 17 18 19 20 21 22 23 24 25
000
FTUS43 KTOP 191200 AAA
TAFMHK
TAF AMD
KMHK 191249Z 1913/2012 15005KT 6SM BR SKC
      TEMPO 1913/1915 5SM BR BKN008
     FM191500 19010KT P6SM SCT020
     FM191800 19011KT P6SM FEW040=

USA.gov is the U.S. government's official web portal to all federal, state and local government web resources and services.